Aviation Digital Data Service (ADDS)

Output produced by METARs form (1942 UTC 25 March 2017)
found at http://www.aviationweather.gov/adds/metars/
 
MRLB 251900Z 10012KT 9999 FEW035 34/19 A2984 NOSIG
MRLB 251700Z 2518/2618 08012KT 9999 FEW040 TX35/2519Z TN23/2610Z 
     TEMPO 2518/2603 10012G25
       
MRPV 251900Z 07013KT 9999 FEW040 27/14 A3002 NOSIG
MRPV 251700Z 2518/2618 08015KT 9999 FEW040 TX29/2519Z TN18/2611Z 
     PROB30 
     TEMPO 2520/2524 28005KT SCT020
       
MRLM 251900Z 08005KT 9999 FEW025 SCT120 29/21 A2991
MRLM 251700Z 2518/2618 06009KT 9999 FEW030 BKN100 TX29/2519Z TN22/2610Z 
     BECMG 2523/2601 24006KT 
     TEMPO 2606/2611 RA BKN020
       
MROC 251900Z 11011KT 9999 FEW040 30/17 A2999 NOSIG
MROC 251700Z 2518/2618 09015KT 9999 FEW040 TX30/2519Z TN19/2610Z 
     TEMPO 2518/2603 10010G20KT 
     PROB30 
     BECMG 2521/2523 23006KT